sensor_id;sensor_type;location;lat;lon;timestamp;temperature;humidity
59075;DHT22;44860;53.020;6.738;2022-08-26T00:00:48;21.90;99.90
59075;DHT22;44860;53.020;6.738;2022-08-26T00:03:15;21.80;99.90
59075;DHT22;44860;53.020;6.738;2022-08-26T00:05:41;21.80;99.90
59075;DHT22;44860;53.020;6.738;2022-08-26T00:08:09;21.80;99.90
59075;DHT22;44860;53.020;6.738;2022-08-26T00:10:35;21.80;99.90
59075;DHT22;44860;53.020;6.738;2022-08-26T00:13:01;21.80;99.90
59075;DHT22;44860;53.020;6.738;2022-08-26T00:15:27;21.80;99.90
59075;DHT22;44860;53.020;6.738;2022-08-26T00:17:53;21.80;99.90
59075;DHT22;44860;53.020;6.738;2022-08-26T00:20:22;21.80;99.90
59075;DHT22;44860;53.020;6.738;2022-08-26T00:22:49;21.70;99.90
59075;DHT22;44860;53.020;6.738;2022-08-26T00:25:15;21.70;99.90
59075;DHT22;44860;53.020;6.738;2022-08-26T00:27:41;21.70;99.90
59075;DHT22;44860;53.020;6.738;2022-08-26T00:30:12;21.70;99.90
59075;DHT22;44860;53.020;6.738;2022-08-26T00:32:38;21.60;99.90
59075;DHT22;44860;53.020;6.738;2022-08-26T00:35:04;21.60;99.90
59075;DHT22;44860;53.020;6.738;2022-08-26T00:37:30;21.60;99.90
59075;DHT22;44860;53.020;6.738;2022-08-26T00:39:57;21.60;99.90
59075;DHT22;44860;53.020;6.738;2022-08-26T00:42:23;21.50;99.90
59075;DHT22;44860;53.020;6.738;2022-08-26T00:44:48;21.50;99.90
59075;DHT22;44860;53.020;6.738;2022-08-26T00:47:29;21.50;99.90
59075;DHT22;44860;53.020;6.738;2022-08-26T00:49:55;21.40;99.90
59075;DHT22;44860;53.020;6.738;2022-08-26T00:52:22;21.40;99.90
59075;DHT22;44860;53.020;6.738;2022-08-26T00:55:03;21.30;99.90
59075;DHT22;44860;53.020;6.738;2022-08-26T00:57:30;21.30;99.90
59075;DHT22;44860;53.020;6.738;2022-08-26T00:59:58;21.30;99.90
59075;DHT22;44860;53.020;6.738;2022-08-26T01:02:26;21.30;99.90
59075;DHT22;44860;53.020;6.738;2022-08-26T01:04:58;21.30;99.90
59075;DHT22;44860;53.020;6.738;2022-08-26T01:07:27;21.20;99.90
59075;DHT22;44860;53.020;6.738;2022-08-26T01:09:53;21.20;99.90
59075;DHT22;44860;53.020;6.738;2022-08-26T01:12:20;21.20;99.90
59075;DHT22;44860;53.020;6.738;2022-08-26T01:14:47;21.10;99.90
59075;DHT22;44860;53.020;6.738;2022-08-26T01:17:13;21.10;99.90
59075;DHT22;44860;53.020;6.738;2022-08-26T01:19:55;21.10;99.90
59075;DHT22;44860;53.020;6.738;2022-08-26T01:22:27;21.10;99.90
59075;DHT22;44860;53.020;6.738;2022-08-26T01:24:57;21.10;99.90
59075;DHT22;44860;53.020;6.738;2022-08-26T01:27:25;21.10;99.90
59075;DHT22;44860;53.020;6.738;2022-08-26T01:29:56;21.00;99.90
59075;DHT22;44860;53.020;6.738;2022-08-26T01:32:23;21.00;99.90
59075;DHT22;44860;53.020;6.738;2022-08-26T01:34:50;21.00;99.90
59075;DHT22;44860;53.020;6.738;2022-08-26T01:37:24;21.00;99.90
59075;DHT22;44860;53.020;6.738;2022-08-26T01:39:52;21.00;99.90
59075;DHT22;44860;53.020;6.738;2022-08-26T01:42:20;21.00;99.90
59075;DHT22;44860;53.020;6.738;2022-08-26T01:45:10;21.00;99.90
59075;DHT22;44860;53.020;6.738;2022-08-26T01:47:38;21.00;99.90
59075;DHT22;44860;53.020;6.738;2022-08-26T01:50:08;21.00;99.90
59075;DHT22;44860;53.020;6.738;2022-08-26T01:52:37;21.00;99.90
59075;DHT22;44860;53.020;6.738;2022-08-26T01:55:04;21.10;99.90
59075;DHT22;44860;53.020;6.738;2022-08-26T01:57:30;21.00;99.90
59075;DHT22;44860;53.020;6.738;2022-08-26T01:59:58;21.00;99.90
59075;DHT22;44860;53.020;6.738;2022-08-26T02:02:25;20.90;99.90
59075;DHT22;44860;53.020;6.738;2022-08-26T02:04:56;20.90;99.90
59075;DHT22;44860;53.020;6.738;2022-08-26T02:07:23;20.90;99.90
59075;DHT22;44860;53.020;6.738;2022-08-26T02:09:49;20.90;99.90
59075;DHT22;44860;53.020;6.738;2022-08-26T02:12:16;20.90;99.90
59075;DHT22;44860;53.020;6.738;2022-08-26T02:14:48;21.00;99.90
59075;DHT22;44860;53.020;6.738;2022-08-26T02:17:17;21.00;99.90
59075;DHT22;44860;53.020;6.738;2022-08-26T02:19:46;21.00;99.90
59075;DHT22;44860;53.020;6.738;2022-08-26T02:22:17;21.00;99.90
59075;DHT22;44860;53.020;6.738;2022-08-26T02:24:59;21.00;99.90
59075;DHT22;44860;53.020;6.738;2022-08-26T02:27:30;21.00;99.90
59075;DHT22;44860;53.020;6.738;2022-08-26T02:30:13;20.90;99.90
59075;DHT22;44860;53.020;6.738;2022-08-26T02:32:40;21.00;99.90
59075;DHT22;44860;53.020;6.738;2022-08-26T02:35:07;21.00;99.90
59075;DHT22;44860;53.020;6.738;2022-08-26T02:37:33;20.90;99.90
59075;DHT22;44860;53.020;6.738;2022-08-26T02:39:59;20.80;99.90
59075;DHT22;44860;53.020;6.738;2022-08-26T02:42:25;20.90;99.90
59075;DHT22;44860;53.020;6.738;2022-08-26T02:44:51;20.90;99.90
59075;DHT22;44860;53.020;6.738;2022-08-26T02:47:16;20.90;99.90
59075;DHT22;44860;53.020;6.738;2022-08-26T02:49:42;20.90;99.90
59075;DHT22;44860;53.020;6.738;2022-08-26T02:52:09;20.90;99.90
59075;DHT22;44860;53.020;6.738;2022-08-26T02:54:34;20.90;99.90
59075;DHT22;44860;53.020;6.738;2022-08-26T02:57:00;20.90;99.90
59075;DHT22;44860;53.020;6.738;2022-08-26T02:59:26;20.90;99.90
59075;DHT22;44860;53.020;6.738;2022-08-26T03:01:51;20.90;99.90
59075;DHT22;44860;53.020;6.738;2022-08-26T03:04:17;20.90;99.90
59075;DHT22;44860;53.020;6.738;2022-08-26T03:06:43;20.90;99.90
59075;DHT22;44860;53.020;6.738;2022-08-26T03:09:09;20.90;99.90
59075;DHT22;44860;53.020;6.738;2022-08-26T03:11:35;20.90;99.90
59075;DHT22;44860;53.020;6.738;2022-08-26T03:14:02;20.90;99.90
59075;DHT22;44860;53.020;6.738;2022-08-26T03:16:31;20.90;99.90
59075;DHT22;44860;53.020;6.738;2022-08-26T03:18:57;20.90;99.90
59075;DHT22;44860;53.020;6.738;2022-08-26T03:21:22;20.90;99.90
59075;DHT22;44860;53.020;6.738;2022-08-26T03:23:49;20.90;99.90
59075;DHT22;44860;53.020;6.738;2022-08-26T03:26:15;20.90;99.90
59075;DHT22;44860;53.020;6.738;2022-08-26T03:28:40;20.90;99.90
59075;DHT22;44860;53.020;6.738;2022-08-26T03:31:27;20.90;99.90
59075;DHT22;44860;53.020;6.738;2022-08-26T03:33:53;20.90;99.90
59075;DHT22;44860;53.020;6.738;2022-08-26T03:36:20;20.90;99.90
59075;DHT22;44860;53.020;6.738;2022-08-26T03:38:46;20.90;99.90
59075;DHT22;44860;53.020;6.738;2022-08-26T03:41:13;20.80;99.90
59075;DHT22;44860;53.020;6.738;2022-08-26T03:43:39;20.90;99.90
59075;DHT22;44860;53.020;6.738;2022-08-26T03:46:07;20.80;99.90
59075;DHT22;44860;53.020;6.738;2022-08-26T03:48:33;20.90;99.90
59075;DHT22;44860;53.020;6.738;2022-08-26T03:50:59;20.80;99.90
59075;DHT22;44860;53.020;6.738;2022-08-26T03:53:25;20.90;99.90
59075;DHT22;44860;53.020;6.738;2022-08-26T03:55:51;20.90;99.90
59075;DHT22;44860;53.020;6.738;2022-08-26T03:58:18;20.80;99.90
59075;DHT22;44860;53.020;6.738;2022-08-26T04:00:44;20.90;99.90
59075;DHT22;44860;53.020;6.738;2022-08-26T04:03:10;20.80;99.90
59075;DHT22;44860;53.020;6.738;2022-08-26T04:05:36;20.90;99.90
59075;DHT22;44860;53.020;6.738;2022-08-26T04:08:02;20.80;99.90
59075;DHT22;44860;53.020;6.738;2022-08-26T04:10:30;20.90;99.90
59075;DHT22;44860;53.020;6.738;2022-08-26T04:12:59;20.90;99.90
59075;DHT22;44860;53.020;6.738;2022-08-26T04:15:25;20.90;99.90
59075;DHT22;44860;53.020;6.738;2022-08-26T04:17:51;20.90;99.90
59075;DHT22;44860;53.020;6.738;2022-08-26T04:20:17;20.90;99.90
59075;DHT22;44860;53.020;6.738;2022-08-26T04:22:44;20.90;99.90
59075;DHT22;44860;53.020;6.738;2022-08-26T04:25:10;20.90;99.90
59075;DHT22;44860;53.020;6.738;2022-08-26T04:27:36;20.90;99.90
59075;DHT22;44860;53.020;6.738;2022-08-26T04:30:03;20.90;99.90
59075;DHT22;44860;53.020;6.738;2022-08-26T04:32:29;20.90;99.90
59075;DHT22;44860;53.020;6.738;2022-08-26T04:34:54;20.90;99.90
59075;DHT22;44860;53.020;6.738;2022-08-26T04:37:21;20.90;99.90
59075;DHT22;44860;53.020;6.738;2022-08-26T04:39:51;20.90;99.90
59075;DHT22;44860;53.020;6.738;2022-08-26T04:42:16;20.90;99.90
59075;DHT22;44860;53.020;6.738;2022-08-26T04:44:42;20.90;99.90
59075;DHT22;44860;53.020;6.738;2022-08-26T04:47:08;20.90;99.90
59075;DHT22;44860;53.020;6.738;2022-08-26T04:49:33;20.90;99.90
59075;DHT22;44860;53.020;6.738;2022-08-26T04:51:59;20.90;99.90
59075;DHT22;44860;53.020;6.738;2022-08-26T04:54:25;20.90;99.90
59075;DHT22;44860;53.020;6.738;2022-08-26T04:56:51;20.90;99.90
59075;DHT22;44860;53.020;6.738;2022-08-26T04:59:17;20.90;99.90
59075;DHT22;44860;53.020;6.738;2022-08-26T05:01:44;20.90;99.90
59075;DHT22;44860;53.020;6.738;2022-08-26T05:04:10;20.90;99.90
59075;DHT22;44860;53.020;6.738;2022-08-26T05:06:36;20.90;99.90
59075;DHT22;44860;53.020;6.738;2022-08-26T05:09:03;20.90;99.90
59075;DHT22;44860;53.020;6.738;2022-08-26T05:11:28;20.90;99.90
59075;DHT22;44860;53.020;6.738;2022-08-26T05:13:54;20.90;99.90
59075;DHT22;44860;53.020;6.738;2022-08-26T05:16:20;21.00;99.90
59075;DHT22;44860;53.020;6.738;2022-08-26T05:18:45;20.90;99.90
59075;DHT22;44860;53.020;6.738;2022-08-26T05:21:17;20.90;99.90
59075;DHT22;44860;53.020;6.738;2022-08-26T05:23:43;20.80;99.90
59075;DHT22;44860;53.020;6.738;2022-08-26T05:26:08;20.80;99.90
59075;DHT22;44860;53.020;6.738;2022-08-26T05:28:34;20.90;99.90
59075;DHT22;44860;53.020;6.738;2022-08-26T05:31:00;20.90;99.90
59075;DHT22;44860;53.020;6.738;2022-08-26T05:33:26;20.90;99.90
59075;DHT22;44860;53.020;6.738;2022-08-26T05:35:51;20.90;99.90
59075;DHT22;44860;53.020;6.738;2022-08-26T05:38:19;20.90;99.90
59075;DHT22;44860;53.020;6.738;2022-08-26T05:40:49;20.90;99.90
59075;DHT22;44860;53.020;6.738;2022-08-26T05:43:15;20.90;99.90
59075;DHT22;44860;53.020;6.738;2022-08-26T05:45:44;20.90;99.90
59075;DHT22;44860;53.020;6.738;2022-08-26T05:48:10;20.90;99.90
59075;DHT22;44860;53.020;6.738;2022-08-26T05:50:41;20.90;99.90
59075;DHT22;44860;53.020;6.738;2022-08-26T05:53:08;20.90;99.90
59075;DHT22;44860;53.020;6.738;2022-08-26T05:55:34;20.90;99.90
59075;DHT22;44860;53.020;6.738;2022-08-26T05:58:05;20.90;99.90
59075;DHT22;44860;53.020;6.738;2022-08-26T06:00:32;20.90;99.90
59075;DHT22;44860;53.020;6.738;2022-08-26T06:02:57;20.90;99.90
59075;DHT22;44860;53.020;6.738;2022-08-26T06:05:23;20.90;99.90
59075;DHT22;44860;53.020;6.738;2022-08-26T06:07:49;20.90;99.90
59075;DHT22;44860;53.020;6.738;2022-08-26T06:10:32;20.90;99.90
59075;DHT22;44860;53.020;6.738;2022-08-26T06:13:00;20.90;99.90
59075;DHT22;44860;53.020;6.738;2022-08-26T06:15:25;20.90;99.90
59075;DHT22;44860;53.020;6.738;2022-08-26T06:17:51;20.90;99.90
59075;DHT22;44860;53.020;6.738;2022-08-26T06:20:16;20.90;99.90
59075;DHT22;44860;53.020;6.738;2022-08-26T06:22:42;20.90;99.90
59075;DHT22;44860;53.020;6.738;2022-08-26T06:25:26;20.90;99.90
59075;DHT22;44860;53.020;6.738;2022-08-26T06:28:05;20.90;99.90
59075;DHT22;44860;53.020;6.738;2022-08-26T06:30:32;20.90;99.90
59075;DHT22;44860;53.020;6.738;2022-08-26T06:32:58;20.90;99.90
59075;DHT22;44860;53.020;6.738;2022-08-26T06:35:25;20.90;99.90
59075;DHT22;44860;53.020;6.738;2022-08-26T06:37:51;20.90;99.90
59075;DHT22;44860;53.020;6.738;2022-08-26T06:40:16;21.00;99.90
59075;DHT22;44860;53.020;6.738;2022-08-26T06:42:42;21.00;99.90
59075;DHT22;44860;53.020;6.738;2022-08-26T06:45:08;21.00;99.90
59075;DHT22;44860;53.020;6.738;2022-08-26T06:47:33;21.00;99.90
59075;DHT22;44860;53.020;6.738;2022-08-26T06:50:00;21.00;99.90
59075;DHT22;44860;53.020;6.738;2022-08-26T06:52:26;21.10;99.90
59075;DHT22;44860;53.020;6.738;2022-08-26T06:54:52;21.10;99.90
59075;DHT22;44860;53.020;6.738;2022-08-26T06:57:17;21.10;99.90
59075;DHT22;44860;53.020;6.738;2022-08-26T06:59:43;21.20;99.90
59075;DHT22;44860;53.020;6.738;2022-08-26T07:02:09;21.20;99.90
59075;DHT22;44860;53.020;6.738;2022-08-26T07:04:34;21.20;99.90
59075;DHT22;44860;53.020;6.738;2022-08-26T07:07:00;21.20;99.90
59075;DHT22;44860;53.020;6.738;2022-08-26T07:09:28;21.20;99.90
59075;DHT22;44860;53.020;6.738;2022-08-26T07:11:58;21.30;99.90
59075;DHT22;44860;53.020;6.738;2022-08-26T07:14:24;21.30;99.90
59075;DHT22;44860;53.020;6.738;2022-08-26T07:16:50;21.30;99.90
59075;DHT22;44860;53.020;6.738;2022-08-26T07:19:20;21.40;99.90
59075;DHT22;44860;53.020;6.738;2022-08-26T07:21:46;21.40;99.90
59075;DHT22;44860;53.020;6.738;2022-08-26T07:24:11;21.50;99.90
59075;DHT22;44860;53.020;6.738;2022-08-26T07:26:38;21.50;99.90
59075;DHT22;44860;53.020;6.738;2022-08-26T07:29:04;21.50;99.90
59075;DHT22;44860;53.020;6.738;2022-08-26T07:31:32;21.50;99.90
59075;DHT22;44860;53.020;6.738;2022-08-26T07:34:00;21.50;99.90
59075;DHT22;44860;53.020;6.738;2022-08-26T07:36:25;21.60;99.90
59075;DHT22;44860;53.020;6.738;2022-08-26T07:38:53;21.60;99.90
59075;DHT22;44860;53.020;6.738;2022-08-26T07:41:21;21.60;99.90
59075;DHT22;44860;53.020;6.738;2022-08-26T07:43:47;21.60;99.90
59075;DHT22;44860;53.020;6.738;2022-08-26T07:46:13;21.70;99.90
59075;DHT22;44860;53.020;6.738;2022-08-26T07:48:43;21.70;99.90
59075;DHT22;44860;53.020;6.738;2022-08-26T07:51:09;21.70;99.90
59075;DHT22;44860;53.020;6.738;2022-08-26T07:53:35;21.70;99.90
59075;DHT22;44860;53.020;6.738;2022-08-26T07:56:01;21.70;99.90
59075;DHT22;44860;53.020;6.738;2022-08-26T07:58:27;21.70;99.90
59075;DHT22;44860;53.020;6.738;2022-08-26T08:00:54;21.70;99.90
59075;DHT22;44860;53.020;6.738;2022-08-26T08:03:19;21.70;99.90
59075;DHT22;44860;53.020;6.738;2022-08-26T08:05:45;21.80;99.90
59075;DHT22;44860;53.020;6.738;2022-08-26T08:08:11;21.70;99.90
59075;DHT22;44860;53.020;6.738;2022-08-26T08:10:37;21.70;99.90
59075;DHT22;44860;53.020;6.738;2022-08-26T08:13:04;21.70;99.90
59075;DHT22;44860;53.020;6.738;2022-08-26T08:15:32;21.70;99.90
59075;DHT22;44860;53.020;6.738;2022-08-26T08:17:58;21.70;99.90
59075;DHT22;44860;53.020;6.738;2022-08-26T08:20:25;21.70;99.90
59075;DHT22;44860;53.020;6.738;2022-08-26T08:22:52;21.70;99.90
59075;DHT22;44860;53.020;6.738;2022-08-26T08:25:18;21.70;99.90
59075;DHT22;44860;53.020;6.738;2022-08-26T08:27:44;21.70;99.90
59075;DHT22;44860;53.020;6.738;2022-08-26T08:30:11;21.80;99.90
59075;DHT22;44860;53.020;6.738;2022-08-26T08:32:37;21.80;99.90
59075;DHT22;44860;53.020;6.738;2022-08-26T08:35:05;21.80;99.90
59075;DHT22;44860;53.020;6.738;2022-08-26T08:37:31;21.80;99.90
59075;DHT22;44860;53.020;6.738;2022-08-26T08:39:58;21.80;99.90
59075;DHT22;44860;53.020;6.738;2022-08-26T08:44:58;21.80;99.90
59075;DHT22;44860;53.020;6.738;2022-08-26T08:47:39;21.90;99.90
59075;DHT22;44860;53.020;6.738;2022-08-26T08:56:11;21.90;99.90
59075;DHT22;44860;53.020;6.738;2022-08-26T09:07:33;21.90;99.90
59075;DHT22;44860;53.020;6.738;2022-08-26T09:10:25;21.90;99.90
59075;DHT22;44860;53.020;6.738;2022-08-26T09:12:53;21.80;99.90
59075;DHT22;44860;53.020;6.738;2022-08-26T09:15:26;21.80;99.90
59075;DHT22;44860;53.020;6.738;2022-08-26T09:20:59;21.80;99.90
59075;DHT22;44860;53.020;6.738;2022-08-26T09:23:27;21.80;99.90
59075;DHT22;44860;53.020;6.738;2022-08-26T09:25:56;21.70;99.90
59075;DHT22;44860;53.020;6.738;2022-08-26T09:28:24;21.80;99.90
59075;DHT22;44860;53.020;6.738;2022-08-26T09:31:14;21.70;99.90
59075;DHT22;44860;53.020;6.738;2022-08-26T09:33:43;21.70;99.90
59075;DHT22;44860;53.020;6.738;2022-08-26T09:36:18;21.80;99.90
59075;DHT22;44860;53.020;6.738;2022-08-26T09:38:48;21.80;99.90
59075;DHT22;44860;53.020;6.738;2022-08-26T09:41:29;21.70;99.90
59075;DHT22;44860;53.020;6.738;2022-08-26T09:44:09;21.60;99.90
59075;DHT22;44860;53.020;6.738;2022-08-26T09:46:39;21.70;99.90
59075;DHT22;44860;53.020;6.738;2022-08-26T09:49:38;21.70;99.90
59075;DHT22;44860;53.020;6.738;2022-08-26T09:54:44;21.70;99.90
59075;DHT22;44860;53.020;6.738;2022-08-26T09:57:26;21.70;99.90
59075;DHT22;44860;53.020;6.738;2022-08-26T09:59:52;21.70;99.90
59075;DHT22;44860;53.020;6.738;2022-08-26T10:02:38;21.70;99.90
59075;DHT22;44860;53.020;6.738;2022-08-26T10:05:09;21.70;99.90
59075;DHT22;44860;53.020;6.738;2022-08-26T10:07:47;21.70;99.90
59075;DHT22;44860;53.020;6.738;2022-08-26T10:10:34;21.80;99.90
59075;DHT22;44860;53.020;6.738;2022-08-26T10:13:10;21.70;99.90
59075;DHT22;44860;53.020;6.738;2022-08-26T10:18:34;21.60;99.90
59075;DHT22;44860;53.020;6.738;2022-08-26T10:21:08;21.60;99.90
59075;DHT22;44860;53.020;6.738;2022-08-26T10:23:47;21.60;99.90
59075;DHT22;44860;53.020;6.738;2022-08-26T10:26:24;21.60;99.90
59075;DHT22;44860;53.020;6.738;2022-08-26T10:29:11;21.60;99.90
59075;DHT22;44860;53.020;6.738;2022-08-26T10:31:50;21.50;99.90
59075;DHT22;44860;53.020;6.738;2022-08-26T10:34:17;21.50;99.90
59075;DHT22;44860;53.020;6.738;2022-08-26T10:37:13;21.60;99.90
59075;DHT22;44860;53.020;6.738;2022-08-26T10:42:21;21.70;99.90
59075;DHT22;44860;53.020;6.738;2022-08-26T10:44:52;21.70;99.90
59075;DHT22;44860;53.020;6.738;2022-08-26T10:47:25;21.60;99.90
59075;DHT22;44860;53.020;6.738;2022-08-26T10:49:53;21.60;99.90
59075;DHT22;44860;53.020;6.738;2022-08-26T10:52:34;21.60;99.90
59075;DHT22;44860;53.020;6.738;2022-08-26T10:55:18;21.60;99.90
59075;DHT22;44860;53.020;6.738;2022-08-26T10:58:00;21.60;99.90
59075;DHT22;44860;53.020;6.738;2022-08-26T11:00:35;21.70;99.90
59075;DHT22;44860;53.020;6.738;2022-08-26T11:03:29;21.70;99.90
59075;DHT22;44860;53.020;6.738;2022-08-26T11:11:39;21.80;99.90
59075;DHT22;44860;53.020;6.738;2022-08-26T11:16:50;21.80;99.90
59075;DHT22;44860;53.020;6.738;2022-08-26T11:22:09;21.70;99.90
59075;DHT22;44860;53.020;6.738;2022-08-26T11:24:59;21.70;99.90
59075;DHT22;44860;53.020;6.738;2022-08-26T11:30:00;21.70;99.90
59075;DHT22;44860;53.020;6.738;2022-08-26T11:40:30;21.80;99.90
59075;DHT22;44860;53.020;6.738;2022-08-26T11:43:03;21.90;99.90
59075;DHT22;44860;53.020;6.738;2022-08-26T11:45:42;21.90;99.90
59075;DHT22;44860;53.020;6.738;2022-08-26T11:50:56;22.00;99.90
59075;DHT22;44860;53.020;6.738;2022-08-26T11:53:23;22.10;99.90
59075;DHT22;44860;53.020;6.738;2022-08-26T11:55:52;22.10;99.90
59075;DHT22;44860;53.020;6.738;2022-08-26T11:58:18;22.10;99.90
59075;DHT22;44860;53.020;6.738;2022-08-26T12:00:49;22.10;99.90
59075;DHT22;44860;53.020;6.738;2022-08-26T12:03:30;22.10;99.90
59075;DHT22;44860;53.020;6.738;2022-08-26T12:06:01;22.20;99.90
59075;DHT22;44860;53.020;6.738;2022-08-26T12:08:29;22.30;99.90
59075;DHT22;44860;53.020;6.738;2022-08-26T12:11:04;22.40;99.90
59075;DHT22;44860;53.020;6.738;2022-08-26T12:13:32;22.50;99.90
59075;DHT22;44860;53.020;6.738;2022-08-26T12:15:59;22.60;99.90
59075;DHT22;44860;53.020;6.738;2022-08-26T12:18:31;22.60;99.90
59075;DHT22;44860;53.020;6.738;2022-08-26T12:20:59;22.50;99.90
59075;DHT22;44860;53.020;6.738;2022-08-26T12:26:25;22.50;99.90
59075;DHT22;44860;53.020;6.738;2022-08-26T12:31:37;22.50;99.90
59075;DHT22;44860;53.020;6.738;2022-08-26T12:34:09;22.40;99.90
59075;DHT22;44860;53.020;6.738;2022-08-26T12:36:51;22.30;99.90
59075;DHT22;44860;53.020;6.738;2022-08-26T12:39:27;22.30;99.90
59075;DHT22;44860;53.020;6.738;2022-08-26T12:41:57;22.20;99.90
59075;DHT22;44860;53.020;6.738;2022-08-26T12:49:34;22.10;99.90
59075;DHT22;44860;53.020;6.738;2022-08-26T12:51:59;22.00;99.90
59075;DHT22;44860;53.020;6.738;2022-08-26T12:54:25;22.00;99.90
59075;DHT22;44860;53.020;6.738;2022-08-26T12:57:12;21.90;99.90
59075;DHT22;44860;53.020;6.738;2022-08-26T12:59:38;21.80;99.90
59075;DHT22;44860;53.020;6.738;2022-08-26T13:02:03;21.70;99.90
59075;DHT22;44860;53.020;6.738;2022-08-26T13:04:36;21.70;99.90
59075;DHT22;44860;53.020;6.738;2022-08-26T13:07:20;21.60;99.90
59075;DHT22;44860;53.020;6.738;2022-08-26T13:09:47;21.60;99.90
59075;DHT22;44860;53.020;6.738;2022-08-26T13:12:31;21.60;99.90
59075;DHT22;44860;53.020;6.738;2022-08-26T13:14:59;21.60;99.90
59075;DHT22;44860;53.020;6.738;2022-08-26T13:17:27;21.50;99.90
59075;DHT22;44860;53.020;6.738;2022-08-26T13:19:53;21.50;99.90
59075;DHT22;44860;53.020;6.738;2022-08-26T13:22:21;21.50;99.90
59075;DHT22;44860;53.020;6.738;2022-08-26T13:24:54;21.50;99.90
59075;DHT22;44860;53.020;6.738;2022-08-26T13:27:22;21.60;99.90
59075;DHT22;44860;53.020;6.738;2022-08-26T13:29:49;21.60;99.90
59075;DHT22;44860;53.020;6.738;2022-08-26T13:32:15;21.50;99.90
59075;DHT22;44860;53.020;6.738;2022-08-26T13:34:44;21.40;99.90
59075;DHT22;44860;53.020;6.738;2022-08-26T13:37:10;21.40;99.90
59075;DHT22;44860;53.020;6.738;2022-08-26T13:39:35;21.20;99.90
59075;DHT22;44860;53.020;6.738;2022-08-26T13:42:02;21.20;99.90
59075;DHT22;44860;53.020;6.738;2022-08-26T13:44:28;21.20;99.90
59075;DHT22;44860;53.020;6.738;2022-08-26T13:46:53;21.20;99.90
59075;DHT22;44860;53.020;6.738;2022-08-26T13:49:19;21.20;99.90
59075;DHT22;44860;53.020;6.738;2022-08-26T13:51:45;21.40;99.90
59075;DHT22;44860;53.020;6.738;2022-08-26T13:54:10;21.50;99.90
59075;DHT22;44860;53.020;6.738;2022-08-26T13:56:36;21.50;99.90
59075;DHT22;44860;53.020;6.738;2022-08-26T13:59:02;21.40;99.90
59075;DHT22;44860;53.020;6.738;2022-08-26T14:01:29;21.40;99.90
59075;DHT22;44860;53.020;6.738;2022-08-26T14:03:56;21.40;99.90
59075;DHT22;44860;53.020;6.738;2022-08-26T14:06:21;21.20;99.90
59075;DHT22;44860;53.020;6.738;2022-08-26T14:08:47;21.10;99.90
59075;DHT22;44860;53.020;6.738;2022-08-26T14:11:13;21.10;99.90
59075;DHT22;44860;53.020;6.738;2022-08-26T14:13:38;21.00;99.90
59075;DHT22;44860;53.020;6.738;2022-08-26T14:16:09;21.00;99.90
59075;DHT22;44860;53.020;6.738;2022-08-26T14:18:37;21.00;99.90
59075;DHT22;44860;53.020;6.738;2022-08-26T14:21:06;21.00;99.90
59075;DHT22;44860;53.020;6.738;2022-08-26T14:23:32;21.00;99.90
59075;DHT22;44860;53.020;6.738;2022-08-26T14:25:58;21.10;99.90
59075;DHT22;44860;53.020;6.738;2022-08-26T14:28:24;21.10;99.90
59075;DHT22;44860;53.020;6.738;2022-08-26T14:30:53;21.10;99.90
59075;DHT22;44860;53.020;6.738;2022-08-26T14:33:23;21.10;99.90
59075;DHT22;44860;53.020;6.738;2022-08-26T14:35:50;21.00;99.90
59075;DHT22;44860;53.020;6.738;2022-08-26T14:38:16;21.00;99.90
59075;DHT22;44860;53.020;6.738;2022-08-26T14:40:42;21.00;99.90
59075;DHT22;44860;53.020;6.738;2022-08-26T14:43:10;20.90;99.90
59075;DHT22;44860;53.020;6.738;2022-08-26T14:45:41;20.90;99.90
59075;DHT22;44860;53.020;6.738;2022-08-26T14:48:07;20.90;99.90
59075;DHT22;44860;53.020;6.738;2022-08-26T14:50:34;20.80;99.90
59075;DHT22;44860;53.020;6.738;2022-08-26T14:52:59;20.80;99.90
59075;DHT22;44860;53.020;6.738;2022-08-26T14:55:44;20.80;99.90
59075;DHT22;44860;53.020;6.738;2022-08-26T14:58:10;20.70;99.90
59075;DHT22;44860;53.020;6.738;2022-08-26T15:00:36;20.70;99.90
59075;DHT22;44860;53.020;6.738;2022-08-26T15:03:02;20.70;99.90
59075;DHT22;44860;53.020;6.738;2022-08-26T15:05:27;20.70;99.90
59075;DHT22;44860;53.020;6.738;2022-08-26T15:07:53;20.70;99.90
59075;DHT22;44860;53.020;6.738;2022-08-26T15:10:21;20.70;99.90
59075;DHT22;44860;53.020;6.738;2022-08-26T15:12:53;20.70;99.90
59075;DHT22;44860;53.020;6.738;2022-08-26T15:15:18;20.70;99.90
59075;DHT22;44860;53.020;6.738;2022-08-26T15:17:44;20.60;99.90
59075;DHT22;44860;53.020;6.738;2022-08-26T15:20:10;20.60;99.90
59075;DHT22;44860;53.020;6.738;2022-08-26T15:22:37;20.60;99.90
59075;DHT22;44860;53.020;6.738;2022-08-26T15:25:04;20.60;99.90
59075;DHT22;44860;53.020;6.738;2022-08-26T15:27:30;20.50;99.90
59075;DHT22;44860;53.020;6.738;2022-08-26T15:29:56;20.60;99.90
59075;DHT22;44860;53.020;6.738;2022-08-26T15:32:22;20.60;99.90
59075;DHT22;44860;53.020;6.738;2022-08-26T15:34:48;20.50;99.90
59075;DHT22;44860;53.020;6.738;2022-08-26T15:37:14;20.50;99.90
59075;DHT22;44860;53.020;6.738;2022-08-26T15:39:40;20.50;99.90
59075;DHT22;44860;53.020;6.738;2022-08-26T15:42:05;20.50;99.90
59075;DHT22;44860;53.020;6.738;2022-08-26T15:44:31;20.50;99.90
59075;DHT22;44860;53.020;6.738;2022-08-26T15:46:58;20.40;99.90
59075;DHT22;44860;53.020;6.738;2022-08-26T15:49:25;20.40;99.90
59075;DHT22;44860;53.020;6.738;2022-08-26T15:51:50;20.40;99.90
59075;DHT22;44860;53.020;6.738;2022-08-26T15:54:18;20.40;99.90
59075;DHT22;44860;53.020;6.738;2022-08-26T15:56:45;20.30;99.90
59075;DHT22;44860;53.020;6.738;2022-08-26T15:59:13;20.30;99.90
59075;DHT22;44860;53.020;6.738;2022-08-26T16:01:39;20.20;99.90
59075;DHT22;44860;53.020;6.738;2022-08-26T16:04:05;20.20;99.90
59075;DHT22;44860;53.020;6.738;2022-08-26T16:06:33;20.20;99.90
59075;DHT22;44860;53.020;6.738;2022-08-26T16:08:59;20.10;99.90
59075;DHT22;44860;53.020;6.738;2022-08-26T16:11:25;20.10;99.90
59075;DHT22;44860;53.020;6.738;2022-08-26T16:13:51;20.10;99.90
59075;DHT22;44860;53.020;6.738;2022-08-26T16:16:17;20.10;99.90
59075;DHT22;44860;53.020;6.738;2022-08-26T16:18:43;20.10;99.90
59075;DHT22;44860;53.020;6.738;2022-08-26T16:21:15;20.10;99.90
59075;DHT22;44860;53.020;6.738;2022-08-26T16:23:41;20.00;99.90
59075;DHT22;44860;53.020;6.738;2022-08-26T16:26:12;20.10;99.90
59075;DHT22;44860;53.020;6.738;2022-08-26T16:28:38;20.10;99.90
59075;DHT22;44860;53.020;6.738;2022-08-26T16:31:05;20.10;99.90
59075;DHT22;44860;53.020;6.738;2022-08-26T16:33:30;20.10;99.90
59075;DHT22;44860;53.020;6.738;2022-08-26T16:35:56;20.10;99.90
59075;DHT22;44860;53.020;6.738;2022-08-26T16:38:23;20.00;99.90
59075;DHT22;44860;53.020;6.738;2022-08-26T16:40:48;20.10;99.90
59075;DHT22;44860;53.020;6.738;2022-08-26T16:43:14;20.10;99.90